Evergreen, Colorado
Current Conditions -  °F | °C
As of 6:46 AM on Monday 24 Nov 2014 (Local Time) from KBJC Reporting Station
Broken Clouds Broken Clouds  
Wind Chill: 18°   Ceiling: 20000
Heat Index: 32°   Visibility: 30mi
Dew Point:   Wind: 29mph
Humidity: 35%   Direction: 280°W
Pressure: 29.87"   Gusts: 35mph
Location:  39.63°N, 105.31°W
Report Text: KBJC 241346Z 28025G30KT 30SM FEW120 BKN200 00/M14 A2987
Loading
Personal Weather Stations






























Interactive Weather Map New forecast layout! Learn more

10-Day Weather Forecast

Advertisements
Track Severe Weather on mobile